LHPA

Pápa Air Base Airport

Pápa, Hungary
TAF AMD LHPA 200800Z 2008/2106 VRB02KT 4000 BR BKN010 OVC025 BECMG 2009/2012 36004KT 9999 BKN040 BKN080 BECMG 2023/2102 CAVOK
Issued Valid From Valid To
Jan-20 @ 08:00 UTC
(3 hours ago)
Jan-20 @ 08:00 UTC
(3 hours ago)
Jan-21 @ 06:00 UTC
(in 19 hours)
Expired Click to View Jan-20 @ 08:00 to Jan-20 @ 09:00
TAF AMD LHPA 200800Z 2008/2106 VRB02KT 4000 BR BKN010 OVC025
Wind Visibility Clouds Conditions
Variable at 2 knots 4,007 meters
  • Broken at 1,000' AGL
  • Overcast at 2,500' AGL
  • Mist
Becoming Jan-20 @ 09:00 to Jan-20 @ 23:00
BECMG 2009/2012 36004KT 9999 BKN040 BKN080
Wind Visibility Clouds Conditions
360° at 4 knots 10,000+ meters
  • Broken at 4,000' AGL
  • Broken at 8,000' AGL
  • Mist
Becoming Jan-20 @ 23:00 to Jan-21 @ 06:00
BECMG 2023/2102 CAVOK
Wind Visibility Clouds Conditions
360° at 4 knots 10,000+ meters
  • No significant clouds
TAF AMD LHPA 200800Z 2008/2106 VRB02KT 4000 BR BKN010 OVC025 BECMG 2009/2012 36004KT 9999 BKN040 BKN080 BECMG 2023/2102 CAVOK
Issued Jan-20 @ 08:00 UTC
(3 hours ago)
Valid From Jan-20 @ 08:00 UTC
(3 hours ago)
Valid To Jan-21 @ 06:00 UTC
(in 19 hours)
Jan-20 @ 08:00 - Jan-20 @ 09:00
Wind Visibility
Variable at 2 knots 4,007 meters
Clouds
  • Broken at 1,000' AGL
  • Overcast at 2,500' AGL
Conditions
  • Mist
Becoming Jan-20 @ 09:00 - Jan-20 @ 23:00
Wind Visibility
360° at 4 knots 10,000+ meters
Clouds
  • Broken at 4,000' AGL
  • Broken at 8,000' AGL
Conditions
  • Mist
Becoming Jan-20 @ 23:00 - Jan-21 @ 06:00
Wind Visibility
360° at 4 knots 10,000+ meters
Clouds
  • No significant clouds
Conditions